createdAt,value
2023-04-05T00:00:12.412Z,1.88
2023-04-05T00:01:12.555Z,1.85
2023-04-05T00:02:12.383Z,1.82
2023-04-05T00:03:12.490Z,1.86
2023-04-05T00:04:12.472Z,1.86
2023-04-05T00:05:12.353Z,1.86
2023-04-05T00:06:12.335Z,1.89
2023-04-05T00:07:12.315Z,1.92
2023-04-05T00:08:12.303Z,1.93
2023-04-05T00:09:12.283Z,1.97
2023-04-05T00:10:12.303Z,1.97
2023-04-05T00:11:12.257Z,1.97
2023-04-05T00:12:12.264Z,1.95
2023-04-05T00:13:12.241Z,1.93
2023-04-05T00:14:12.226Z,1.93
2023-04-05T00:15:12.231Z,1.93
2023-04-05T00:16:12.225Z,1.93
2023-04-05T00:17:12.733Z,1.86
2023-04-05T00:18:12.177Z,1.86
2023-04-05T00:19:12.167Z,1.85
2023-04-05T00:20:12.153Z,1.82
2023-04-05T00:21:12.129Z,1.81
2023-04-05T00:22:12.129Z,1.79
2023-04-05T00:23:12.098Z,1.79
2023-04-05T00:24:12.092Z,1.76
2023-04-05T00:25:12.125Z,1.68
2023-04-05T00:26:12.070Z,1.66
2023-04-05T00:27:12.052Z,1.64
2023-04-05T00:28:12.036Z,1.63
2023-04-05T00:29:12.022Z,1.61
2023-04-05T00:30:12.037Z,1.58
2023-04-05T00:31:12.001Z,1.58
2023-04-05T00:32:12.090Z,1.57
2023-04-05T00:33:11.991Z,1.58
2023-04-05T00:34:11.958Z,1.60
2023-04-05T00:35:11.966Z,1.60
2023-04-05T00:36:11.945Z,1.61
2023-04-05T00:37:11.929Z,1.66
2023-04-05T00:38:11.895Z,1.70
2023-04-05T00:39:11.919Z,1.75
2023-04-05T00:40:11.890Z,1.79
2023-04-05T00:41:11.875Z,1.81
2023-04-05T00:42:11.853Z,1.82
2023-04-05T00:43:11.851Z,1.79
2023-04-05T00:44:11.829Z,1.78
2023-04-05T00:45:11.837Z,1.76
2023-04-05T00:46:11.832Z,1.74
2023-04-05T00:47:11.796Z,1.75
2023-04-05T00:48:11.915Z,1.74
2023-04-05T00:49:11.762Z,1.74
2023-04-05T00:50:11.756Z,1.70
2023-04-05T00:51:11.833Z,1.75
2023-04-05T00:52:11.718Z,1.75
2023-04-05T00:53:11.712Z,1.75
2023-04-05T00:54:11.697Z,1.76
2023-04-05T00:55:11.707Z,1.78
2023-04-05T00:56:11.675Z,1.78
2023-04-05T00:57:11.663Z,1.79
2023-04-05T00:58:11.636Z,1.81
2023-04-05T00:59:11.669Z,1.81
2023-04-05T01:00:11.648Z,1.79
2023-04-05T01:01:11.659Z,1.81
2023-04-05T01:02:11.596Z,1.79
2023-04-05T01:03:11.584Z,1.82
2023-04-05T01:04:11.767Z,1.79
2023-04-05T01:05:11.565Z,1.82
2023-04-05T01:06:11.541Z,1.82
2023-04-05T01:07:11.524Z,1.84
2023-04-05T01:08:11.510Z,1.82
2023-04-05T01:09:11.501Z,1.81
2023-04-05T01:10:11.506Z,1.79
2023-04-05T01:11:11.475Z,1.75
2023-04-05T01:12:11.442Z,1.70
2023-04-05T01:13:11.448Z,1.67
2023-04-05T01:14:11.427Z,1.66
2023-04-05T01:15:11.463Z,1.63
2023-04-05T01:16:11.422Z,1.64
2023-04-05T01:17:11.387Z,1.63
2023-04-05T01:18:11.404Z,1.58
2023-04-05T01:19:11.357Z,1.57
2023-04-05T01:20:11.364Z,1.57
2023-04-05T01:21:11.340Z,1.53
2023-04-05T01:22:11.349Z,1.49
2023-04-05T01:23:11.335Z,1.49
2023-04-05T01:24:11.298Z,1.45
2023-04-05T01:25:11.303Z,1.42
2023-04-05T01:26:11.265Z,1.42
2023-04-05T01:27:11.274Z,1.43
2023-04-05T01:28:11.244Z,1.36
2023-04-05T01:29:11.234Z,1.31
2023-04-05T01:30:11.233Z,1.30
2023-04-05T01:31:11.225Z,1.28
2023-04-05T01:32:11.188Z,1.27
2023-04-05T01:33:11.202Z,1.30
2023-04-05T01:34:11.174Z,1.31
2023-04-05T01:35:11.169Z,1.31
2023-04-05T01:36:11.159Z,1.31
2023-04-05T01:37:11.128Z,1.34
2023-04-05T01:38:11.104Z,1.34
2023-04-05T01:39:11.097Z,1.30
2023-04-05T01:40:11.089Z,1.24
2023-04-05T01:41:11.088Z,1.24
2023-04-05T01:42:11.055Z,1.25
2023-04-05T01:43:11.047Z,1.20
2023-04-05T01:44:11.046Z,1.18
2023-04-05T01:45:11.027Z,1.22
2023-04-05T01:46:11.146Z,1.24
2023-04-05T01:47:11.006Z,1.24
2023-04-05T01:48:10.993Z,1.24
2023-04-05T01:49:10.990Z,1.27
2023-04-05T01:50:10.972Z,1.28
2023-04-05T01:51:10.974Z,1.32
2023-04-05T01:52:10.925Z,1.31
2023-04-05T01:53:10.937Z,1.32
2023-04-05T01:54:10.913Z,1.30
2023-04-05T01:55:10.900Z,1.28
2023-04-05T01:56:10.917Z,1.30
2023-04-05T01:57:10.903Z,1.28
2023-04-05T01:58:10.842Z,1.31
2023-04-05T01:59:10.889Z,1.30
2023-04-05T02:00:10.829Z,1.31
2023-04-05T02:01:10.928Z,1.31
2023-04-05T02:02:10.805Z,1.27
2023-04-05T02:03:10.895Z,1.22
2023-04-05T02:04:10.774Z,1.16
2023-04-05T02:05:10.763Z,1.07
2023-04-05T02:06:10.752Z,1.00
2023-04-05T02:07:10.751Z,0.92
2023-04-05T02:08:10.734Z,0.86
2023-04-05T02:09:10.712Z,0.86
2023-04-05T02:10:10.698Z,0.86
2023-04-05T02:11:10.710Z,0.84
2023-04-05T02:12:10.686Z,0.81
2023-04-05T02:13:10.670Z,0.78
2023-04-05T02:14:10.664Z,0.78
2023-04-05T02:15:10.638Z,0.78
2023-04-05T02:16:10.627Z,0.82
2023-04-05T02:17:10.603Z,0.85
2023-04-05T02:18:10.630Z,0.88
2023-04-05T02:19:10.581Z,0.94
2023-04-05T02:20:10.598Z,0.95
2023-04-05T02:21:10.646Z,0.96
2023-04-05T02:22:10.549Z,0.96
2023-04-05T02:23:10.557Z,0.94
2023-04-05T02:24:10.522Z,0.89
2023-04-05T02:25:10.509Z,0.82
2023-04-05T02:26:10.513Z,0.77
2023-04-05T02:27:10.478Z,0.76
2023-04-05T02:28:11.934Z,0.70
2023-04-05T02:29:10.457Z,0.68
2023-04-05T02:30:10.467Z,0.66
2023-04-05T02:31:10.424Z,0.68
2023-04-05T02:32:10.410Z,0.73
2023-04-05T02:33:10.485Z,0.77
2023-04-05T02:34:10.397Z,0.81
2023-04-05T02:35:10.381Z,0.82
2023-04-05T02:36:10.402Z,0.81
2023-04-05T02:37:10.341Z,0.76
2023-04-05T02:38:10.353Z,0.71
2023-04-05T02:39:10.328Z,0.66
2023-04-05T02:40:10.301Z,0.66
2023-04-05T02:41:10.314Z,0.68
2023-04-05T02:42:10.287Z,0.71
2023-04-05T02:43:10.294Z,0.74
2023-04-05T02:44:10.254Z,0.74
2023-04-05T02:45:10.254Z,0.77
2023-04-05T02:46:10.301Z,0.78
2023-04-05T02:47:10.218Z,0.77
2023-04-05T02:48:10.284Z,0.76
2023-04-05T02:49:10.199Z,0.73
2023-04-05T02:50:10.186Z,0.70
2023-04-05T02:51:10.168Z,0.67
2023-04-05T02:52:10.151Z,0.63
2023-04-05T02:53:10.146Z,0.59
2023-04-05T02:54:10.143Z,0.59
2023-04-05T02:55:10.132Z,0.61
2023-04-05T02:56:10.097Z,0.63
2023-04-05T02:57:10.084Z,0.58
2023-04-05T02:58:10.087Z,0.51
2023-04-05T02:59:10.145Z,0.47
2023-04-05T03:00:10.041Z,0.44
2023-04-05T03:01:10.143Z,0.44
2023-04-05T03:02:10.019Z,0.40
2023-04-05T03:03:10.163Z,0.39
2023-04-05T03:04:10.003Z,0.42
2023-04-05T03:05:09.985Z,0.45
2023-04-05T03:06:10.148Z,0.49
2023-04-05T03:07:09.955Z,0.55
2023-04-05T03:08:09.944Z,0.56
2023-04-05T03:09:09.958Z,0.56
2023-04-05T03:10:09.918Z,0.58
2023-04-05T03:11:09.902Z,0.61
2023-04-05T03:12:09.893Z,0.59
2023-04-05T03:13:09.873Z,0.52
2023-04-05T03:14:09.879Z,0.49
2023-04-05T03:15:09.855Z,0.47
2023-04-05T03:16:09.888Z,0.34
2023-04-05T03:17:09.823Z,0.30
2023-04-05T03:18:09.842Z,0.23
2023-04-05T03:19:09.827Z,0.18
2023-04-05T03:20:09.793Z,0.15
2023-04-05T03:21:09.846Z,0.15
2023-04-05T03:22:09.763Z,0.18
2023-04-05T03:23:09.753Z,0.23
2023-04-05T03:24:09.758Z,0.27
2023-04-05T03:25:09.732Z,0.30
2023-04-05T03:26:09.714Z,0.26
2023-04-05T03:27:09.693Z,0.30
2023-04-05T03:28:09.684Z,0.36
2023-04-05T03:29:09.688Z,0.39
2023-04-05T03:30:09.656Z,0.39
2023-04-05T03:31:09.702Z,0.39
2023-04-05T03:32:09.634Z,0.37
2023-04-05T03:33:09.626Z,0.37
2023-04-05T03:34:09.634Z,0.39
2023-04-05T03:35:09.599Z,0.42
2023-04-05T03:36:09.639Z,0.44
2023-04-05T03:37:09.576Z,0.44
2023-04-05T03:38:09.550Z,0.47
2023-04-05T03:39:09.553Z,0.47
2023-04-05T03:40:09.525Z,0.47
2023-04-05T03:41:09.512Z,0.45
2023-04-05T03:42:09.514Z,0.40
2023-04-05T03:43:09.493Z,0.31
2023-04-05T03:44:09.501Z,0.27
2023-04-05T03:45:09.467Z,0.20
2023-04-05T03:46:09.504Z,0.16
2023-04-05T03:47:09.438Z,0.12
2023-04-05T03:48:09.516Z,0.09
2023-04-05T03:49:09.450Z,0.02
2023-04-05T03:50:09.403Z,0.01
2023-04-05T03:51:09.405Z,-0.05
2023-04-05T03:52:09.371Z,-0.06
2023-04-05T03:53:09.357Z,-0.07
2023-04-05T03:54:09.374Z,-0.12
2023-04-05T03:55:09.356Z,-0.15
2023-04-05T03:56:09.321Z,-0.17
2023-04-05T03:57:09.310Z,-0.15
2023-04-05T03:58:09.299Z,-0.07
2023-04-05T03:59:09.316Z,-0.02
2023-04-05T04:00:09.276Z,0.05
2023-04-05T04:01:09.255Z,0.09
2023-04-05T04:02:09.240Z,0.15
2023-04-05T04:03:09.273Z,0.16
2023-04-05T04:04:09.219Z,0.19
2023-04-05T04:05:09.245Z,0.16
2023-04-05T04:06:09.248Z,0.15
2023-04-05T04:07:09.184Z,0.12
2023-04-05T04:08:09.226Z,0.05
2023-04-05T04:09:09.164Z,0.00
2023-04-05T04:10:09.145Z,-0.07
2023-04-05T04:11:09.122Z,-0.10
2023-04-05T04:12:09.110Z,-0.13
2023-04-05T04:13:09.104Z,-0.12
2023-04-05T04:14:09.086Z,-0.12
2023-04-05T04:15:09.093Z,-0.17
2023-04-05T04:16:09.096Z,-0.20
2023-04-05T04:17:09.039Z,-0.23
2023-04-05T04:18:09.112Z,-0.27
2023-04-05T04:19:09.019Z,-0.28
2023-04-05T04:20:09.042Z,-0.30
2023-04-05T04:21:08.986Z,-0.30
2023-04-05T04:22:08.975Z,-0.35
2023-04-05T04:23:08.958Z,-0.33
2023-04-05T04:24:08.939Z,-0.27
2023-04-05T04:25:08.960Z,-0.26
2023-04-05T04:26:08.917Z,-0.21
2023-04-05T04:27:08.916Z,-0.23
2023-04-05T04:28:08.895Z,-0.27
2023-04-05T04:29:08.887Z,-0.30
2023-04-05T04:30:08.884Z,-0.35
2023-04-05T04:31:08.860Z,-0.38
2023-04-05T04:32:08.879Z,-0.39
2023-04-05T04:33:09.279Z,-0.38
2023-04-05T04:34:08.832Z,-0.38
2023-04-05T04:35:16.115Z,-0.35
2023-04-05T04:36:08.871Z,-0.30
2023-04-05T04:37:08.794Z,-0.26
2023-04-05T04:38:08.958Z,-0.18
2023-04-05T04:39:08.790Z,-0.13
2023-04-05T04:40:08.786Z,-0.13
2023-04-05T04:41:08.726Z,-0.12
2023-04-05T04:42:08.721Z,-0.17
2023-04-05T04:43:08.721Z,-0.18
2023-04-05T04:44:08.700Z,-0.18
2023-04-05T04:45:08.701Z,-0.18
2023-04-05T04:46:08.690Z,-0.24
2023-04-05T04:47:08.901Z,-0.24
2023-04-05T04:48:08.650Z,-0.26
2023-04-05T04:49:08.630Z,-0.26
2023-04-05T04:50:08.644Z,-0.30
2023-04-05T04:51:08.594Z,-0.31
2023-04-05T04:52:08.594Z,-0.36
2023-04-05T04:53:08.580Z,-0.39
2023-04-05T04:54:08.575Z,-0.39
2023-04-05T04:55:08.571Z,-0.36
2023-04-05T04:56:08.536Z,-0.33
2023-04-05T04:57:08.526Z,-0.27
2023-04-05T04:58:08.513Z,-0.24
2023-04-05T04:59:08.585Z,-0.20
2023-04-05T05:00:08.519Z,-0.20
2023-04-05T05:01:08.549Z,-0.18
2023-04-05T05:02:08.467Z,-0.17
2023-04-05T05:03:08.594Z,-0.17
2023-04-05T05:04:08.509Z,-0.15
2023-04-05T05:05:08.444Z,-0.13
2023-04-05T05:06:08.407Z,-0.13
2023-04-05T05:07:08.402Z,-0.15
2023-04-05T05:08:08.405Z,-0.10
2023-04-05T05:09:08.378Z,-0.09
2023-04-05T05:10:08.373Z,-0.06
2023-04-05T05:11:08.355Z,-0.06
2023-04-05T05:12:08.340Z,-0.06
2023-04-05T05:13:08.319Z,-0.05
2023-04-05T05:14:08.308Z,-0.05
2023-04-05T05:15:08.316Z,-0.06
2023-04-05T05:16:08.324Z,-0.06
2023-04-05T05:17:08.274Z,-0.09
2023-04-05T05:18:08.296Z,-0.12
2023-04-05T05:19:08.249Z,-0.12
2023-04-05T05:20:08.257Z,-0.12
2023-04-05T05:21:08.245Z,-0.13
2023-04-05T05:22:08.285Z,-0.12
2023-04-05T05:23:08.193Z,-0.10
2023-04-05T05:24:08.190Z,-0.13
2023-04-05T05:25:08.180Z,-0.15
2023-04-05T05:26:08.167Z,-0.21
2023-04-05T05:27:08.149Z,-0.27
2023-04-05T05:28:08.147Z,-0.30
2023-04-05T05:29:08.112Z,-0.33
2023-04-05T05:30:08.123Z,-0.35
2023-04-05T05:31:08.118Z,-0.28
2023-04-05T05:32:08.049Z,-0.23
2023-04-05T05:33:08.085Z,-0.18
2023-04-05T05:34:08.134Z,-0.12
2023-04-05T05:35:08.075Z,-0.07
2023-04-05T05:36:08.026Z,-0.05
2023-04-05T05:37:08.013Z,0.00
2023-04-05T05:38:10.195Z,0.06
2023-04-05T05:39:07.983Z,0.09
2023-04-05T05:40:07.996Z,0.11
2023-04-05T05:41:07.966Z,0.12
2023-04-05T05:42:07.977Z,0.15
2023-04-05T05:43:13.455Z,0.18
2023-04-05T05:44:07.921Z,0.19
2023-04-05T05:45:07.927Z,0.20
2023-04-05T05:46:07.954Z,0.20
2023-04-05T05:47:07.892Z,0.24
2023-04-05T05:48:07.879Z,0.26
2023-04-05T05:49:07.842Z,0.24
2023-04-05T05:50:07.849Z,0.24
2023-04-05T05:51:07.878Z,0.27
2023-04-05T05:52:07.821Z,0.30
2023-04-05T05:53:07.794Z,0.36
2023-04-05T05:54:07.800Z,0.42
2023-04-05T05:55:07.790Z,0.48
2023-04-05T05:56:07.787Z,0.55
2023-04-05T05:57:07.756Z,0.56
2023-04-05T05:58:07.809Z,0.61
2023-04-05T05:59:07.806Z,0.63
2023-04-05T06:00:07.892Z,0.67
2023-04-05T06:01:07.728Z,0.68
2023-04-05T06:02:07.695Z,0.68
2023-04-05T06:03:07.778Z,0.68
2023-04-05T06:04:07.784Z,0.70
2023-04-05T06:05:07.648Z,0.67
2023-04-05T06:06:07.696Z,0.68
2023-04-05T06:07:07.616Z,0.68
2023-04-05T06:08:07.615Z,0.68
2023-04-05T06:09:07.594Z,0.71
2023-04-05T06:10:07.643Z,0.74
2023-04-05T06:11:07.637Z,1.28
2023-04-05T06:12:07.617Z,2.01
2023-04-05T06:13:07.581Z,2.61
2023-04-05T06:14:07.553Z,3.08
2023-04-05T06:15:07.515Z,3.49
2023-04-05T06:16:07.737Z,3.56
2023-04-05T06:17:07.503Z,3.67
2023-04-05T06:18:07.566Z,3.36
2023-04-05T06:19:07.470Z,3.03
2023-04-05T06:20:07.464Z,2.75
2023-04-05T06:21:07.464Z,2.51
2023-04-05T06:22:07.451Z,2.28
2023-04-05T06:23:08.141Z,2.10
2023-04-05T06:24:07.415Z,1.95
2023-04-05T06:25:07.486Z,1.82
2023-04-05T06:26:07.534Z,1.71
2023-04-05T06:27:07.370Z,1.64
2023-04-05T06:28:07.370Z,1.58
2023-04-05T06:29:07.334Z,1.56
2023-04-05T06:30:07.592Z,1.53
2023-04-05T06:31:08.314Z,1.50
2023-04-05T06:32:07.322Z,1.48
2023-04-05T06:33:07.325Z,1.45
2023-04-05T06:34:07.268Z,1.48
2023-04-05T06:35:07.246Z,1.45
2023-04-05T06:36:07.295Z,1.45
2023-04-05T06:37:07.234Z,1.43
2023-04-05T06:38:07.420Z,1.46
2023-04-05T06:39:07.298Z,1.46
2023-04-05T06:40:07.719Z,1.48
2023-04-05T06:41:07.305Z,1.48
2023-04-05T06:42:07.173Z,1.48
2023-04-05T06:43:07.209Z,1.48
2023-04-05T06:44:07.152Z,1.52
2023-04-05T06:45:07.118Z,1.52
2023-04-05T06:46:07.166Z,1.49
2023-04-05T06:47:07.074Z,1.49
2023-04-05T06:48:07.097Z,1.52
2023-04-05T06:49:07.072Z,1.56
2023-04-05T06:50:07.083Z,1.56
2023-04-05T06:51:07.046Z,1.58
2023-04-05T06:52:07.149Z,1.57
2023-04-05T06:53:07.377Z,1.56
2023-04-05T06:54:07.008Z,1.50
2023-04-05T06:55:06.996Z,1.49
2023-04-05T06:56:07.085Z,1.48
2023-04-05T06:57:06.970Z,1.50
2023-04-05T06:58:06.956Z,1.53
2023-04-05T06:59:07.015Z,1.60
2023-04-05T07:00:07.020Z,1.63
2023-04-05T07:01:07.014Z,1.60
2023-04-05T07:02:06.899Z,1.57
2023-04-05T07:03:06.972Z,1.58
2023-04-05T07:04:07.066Z,1.61
2023-04-05T07:05:06.860Z,1.64
2023-04-05T07:06:06.932Z,1.67
2023-04-05T07:07:06.856Z,1.70
2023-04-05T07:08:06.857Z,1.76
2023-04-05T07:09:06.918Z,1.82
2023-04-05T07:10:06.801Z,1.86
2023-04-05T07:11:06.804Z,1.88
2023-04-05T07:12:06.790Z,1.89
2023-04-05T07:13:06.764Z,1.88
2023-04-05T07:14:06.726Z,1.89
2023-04-05T07:15:06.715Z,1.93
2023-04-05T07:16:06.791Z,1.98
2023-04-05T07:17:06.696Z,2.03
2023-04-05T07:18:07.473Z,2.04
2023-04-05T07:19:06.672Z,2.05
2023-04-05T07:20:06.652Z,2.10
2023-04-05T07:21:06.685Z,2.15
2023-04-05T07:22:06.641Z,2.16
2023-04-05T07:23:06.655Z,2.18
2023-04-05T07:24:06.618Z,2.21
2023-04-05T07:25:06.716Z,2.22
2023-04-05T07:26:06.608Z,2.26
2023-04-05T07:27:06.601Z,2.33
2023-04-05T07:28:06.560Z,2.34
2023-04-05T07:29:06.729Z,2.40
2023-04-05T07:30:07.269Z,2.46
2023-04-05T07:31:06.586Z,2.50
2023-04-05T07:32:06.523Z,2.51
2023-04-05T07:33:06.705Z,2.54
2023-04-05T07:34:06.482Z,2.58
2023-04-05T07:35:06.640Z,2.61
2023-04-05T07:36:06.482Z,2.65
2023-04-05T07:37:06.443Z,2.70
2023-04-05T07:38:06.470Z,2.73
2023-04-05T07:39:06.395Z,2.75
2023-04-05T07:40:06.409Z,2.77
2023-04-05T07:41:06.427Z,2.82
2023-04-05T07:42:06.370Z,2.87
2023-04-05T07:43:06.518Z,2.90
2023-04-05T07:44:06.338Z,2.94
2023-04-05T07:45:06.327Z,2.95
2023-04-05T07:46:06.360Z,2.98
2023-04-05T07:47:06.308Z,3.03
2023-04-05T07:48:06.348Z,3.09
2023-04-05T07:49:06.301Z,3.18
2023-04-05T07:50:06.283Z,3.19
2023-04-05T07:51:06.308Z,3.22
2023-04-05T07:52:06.267Z,3.27
2023-04-05T07:53:06.230Z,3.29
2023-04-05T07:54:06.218Z,3.36
2023-04-05T07:55:06.205Z,3.41
2023-04-05T07:56:06.213Z,3.48
2023-04-05T07:57:06.172Z,3.50
2023-04-05T07:58:06.162Z,3.55
2023-04-05T07:59:06.297Z,3.56
2023-04-05T08:00:06.171Z,3.59
2023-04-05T08:01:06.116Z,3.63
2023-04-05T08:02:14.485Z,3.63
2023-04-05T08:03:07.198Z,3.61
2023-04-05T08:04:06.222Z,3.63
2023-04-05T08:05:06.126Z,3.64
2023-04-05T08:06:06.061Z,3.68
2023-04-05T08:07:06.055Z,3.70
2023-04-05T08:08:06.032Z,3.73
2023-04-05T08:09:06.097Z,3.73
2023-04-05T08:10:06.013Z,3.74
2023-04-05T08:11:05.986Z,3.77
2023-04-05T08:12:05.985Z,3.77
2023-04-05T08:13:05.960Z,3.77
2023-04-05T08:14:05.962Z,3.82
2023-04-05T08:15:05.976Z,3.85
2023-04-05T08:16:05.970Z,3.88
2023-04-05T08:17:05.923Z,3.95
2023-04-05T08:18:05.916Z,4.04
2023-04-05T08:19:05.877Z,4.12
2023-04-05T08:20:05.868Z,4.18
2023-04-05T08:21:05.874Z,4.18
2023-04-05T08:22:05.857Z,4.24
2023-04-05T08:23:05.836Z,4.27
2023-04-05T08:24:05.837Z,4.30
2023-04-05T08:25:05.798Z,4.32
2023-04-05T08:26:05.790Z,4.40
2023-04-05T08:27:05.827Z,4.43
2023-04-05T08:28:05.768Z,4.52
2023-04-05T08:29:05.747Z,4.56
2023-04-05T08:30:05.771Z,4.63
2023-04-05T08:31:05.731Z,4.68
2023-04-05T08:32:05.738Z,4.75
2023-04-05T08:33:05.723Z,4.76
2023-04-05T08:34:05.694Z,4.79
2023-04-05T08:35:05.664Z,4.84
2023-04-05T08:36:05.659Z,4.87
2023-04-05T08:37:05.658Z,4.87
2023-04-05T08:38:05.634Z,4.86
2023-04-05T08:39:05.611Z,4.87
2023-04-05T08:40:05.596Z,4.90
2023-04-05T08:41:05.597Z,4.94
2023-04-05T08:42:05.598Z,5.01
2023-04-05T08:43:05.557Z,5.02
2023-04-05T08:44:05.702Z,5.08
2023-04-05T08:45:05.529Z,5.16
2023-04-05T08:46:05.554Z,5.20
2023-04-05T08:47:05.607Z,5.25
2023-04-05T08:48:05.540Z,5.29
2023-04-05T08:49:05.476Z,5.31
2023-04-05T08:50:05.464Z,5.36
2023-04-05T08:51:05.485Z,5.41
2023-04-05T08:52:05.460Z,5.44
2023-04-05T08:53:05.431Z,5.46
2023-04-05T08:54:05.406Z,5.47
2023-04-05T08:55:05.419Z,5.51
2023-04-05T08:56:05.409Z,5.55
2023-04-05T08:57:05.388Z,5.59
2023-04-05T08:58:05.370Z,5.64
2023-04-05T08:59:05.439Z,5.65
2023-04-05T09:00:05.339Z,5.67
2023-04-05T09:01:05.348Z,5.67
2023-04-05T09:02:05.405Z,5.69
2023-04-05T09:03:05.374Z,5.73
2023-04-05T09:04:05.290Z,5.74
2023-04-05T09:05:05.365Z,5.79
2023-04-05T09:06:05.274Z,5.84
2023-04-05T09:07:05.429Z,5.90
2023-04-05T09:08:05.514Z,5.94
2023-04-05T09:09:05.234Z,5.97
2023-04-05T09:10:05.205Z,6.01
2023-04-05T09:11:05.217Z,6.06
2023-04-05T09:12:05.350Z,6.10
2023-04-05T09:13:05.641Z,6.16
2023-04-05T09:14:05.164Z,6.20
2023-04-05T09:15:05.172Z,6.26
2023-04-05T09:16:05.122Z,6.29
2023-04-05T09:17:05.214Z,6.34
2023-04-05T09:18:12.379Z,6.36
2023-04-05T09:19:06.095Z,6.41
2023-04-05T09:20:05.213Z,6.44
2023-04-05T09:21:05.095Z,6.50
2023-04-05T09:22:05.213Z,6.53
2023-04-05T09:23:05.093Z,6.54
2023-04-05T09:24:05.028Z,6.59
2023-04-05T09:25:05.025Z,6.64
2023-04-05T09:26:05.124Z,6.68
2023-04-05T09:27:05.228Z,6.72
2023-04-05T09:28:05.278Z,6.77
2023-04-05T09:29:05.112Z,6.80
2023-04-05T09:30:05.053Z,6.83
2023-04-05T09:31:05.039Z,6.85
2023-04-05T09:32:05.172Z,6.89
2023-04-05T09:33:04.922Z,6.86
2023-04-05T09:34:04.962Z,6.89
2023-04-05T09:35:05.123Z,6.92
2023-04-05T09:36:04.897Z,6.93
2023-04-05T09:37:05.049Z,6.96
2023-04-05T09:38:04.874Z,7.03
2023-04-05T09:39:04.848Z,7.04
2023-04-05T09:40:04.936Z,7.07
2023-04-05T09:41:04.909Z,7.08
2023-04-05T09:42:04.805Z,7.13
2023-04-05T09:43:04.797Z,7.18
2023-04-05T09:44:04.762Z,7.15
2023-04-05T09:45:05.054Z,7.15
2023-04-05T09:46:04.752Z,7.18
2023-04-05T09:47:04.727Z,7.19
2023-04-05T09:48:04.772Z,7.25
2023-04-05T09:49:04.959Z,7.26
2023-04-05T09:50:05.155Z,7.28
2023-04-05T09:51:12.564Z,7.32
2023-04-05T09:52:05.652Z,7.36
2023-04-05T09:53:05.044Z,7.39
2023-04-05T09:54:04.620Z,7.41
2023-04-05T09:55:04.619Z,7.44
2023-04-05T09:56:04.756Z,7.48
2023-04-05T09:57:04.863Z,7.53
2023-04-05T09:58:04.615Z,7.48
2023-04-05T09:59:04.703Z,7.50
2023-04-05T10:00:04.550Z,7.53
2023-04-05T10:01:16.424Z,7.56
2023-04-05T10:02:05.589Z,7.61
2023-04-05T10:03:04.624Z,7.67
2023-04-05T10:04:04.629Z,7.72
2023-04-05T10:05:04.507Z,7.74
2023-04-05T10:06:04.472Z,7.78
2023-04-05T10:07:04.486Z,7.84
2023-04-05T10:08:04.448Z,7.90
2023-04-05T10:09:04.425Z,7.87
2023-04-05T10:10:04.424Z,7.77
2023-04-05T10:11:04.409Z,7.72
2023-04-05T10:12:04.430Z,7.72
2023-04-05T10:13:04.396Z,7.64
2023-04-05T10:14:04.365Z,7.69
2023-04-05T10:15:04.355Z,7.70
2023-04-05T10:16:04.386Z,7.66
2023-04-05T10:17:04.336Z,7.67
2023-04-05T10:18:04.377Z,7.70
2023-04-05T10:19:04.293Z,7.80
2023-04-05T10:20:04.273Z,7.85
2023-04-05T10:21:04.268Z,7.95
2023-04-05T10:22:04.236Z,8.01
2023-04-05T10:23:04.296Z,8.03
2023-04-05T10:24:04.238Z,8.08
2023-04-05T10:25:04.204Z,8.16
2023-04-05T10:26:04.196Z,8.20
2023-04-05T10:27:04.195Z,8.26
2023-04-05T10:28:04.220Z,8.32
2023-04-05T10:29:04.176Z,8.34
2023-04-05T10:30:04.192Z,8.38
2023-04-05T10:31:04.127Z,8.42
2023-04-05T10:32:04.131Z,8.46
2023-04-05T10:33:04.237Z,8.50
2023-04-05T10:34:04.135Z,8.53
2023-04-05T10:35:04.074Z,8.57
2023-04-05T10:36:04.115Z,8.60
2023-04-05T10:37:11.114Z,8.60
2023-04-05T10:38:04.057Z,8.54
2023-04-05T10:39:04.041Z,8.45
2023-04-05T10:40:04.000Z,8.41
2023-04-05T10:41:04.000Z,8.41
2023-04-05T10:42:03.973Z,8.35
2023-04-05T10:43:03.989Z,8.32
2023-04-05T10:44:09.213Z,8.34
2023-04-05T10:45:04.984Z,8.38
2023-04-05T10:46:04.026Z,8.46
2023-04-05T10:47:03.945Z,8.59
2023-04-05T10:48:03.949Z,8.68
2023-04-05T10:49:03.890Z,8.75
2023-04-05T10:50:03.893Z,8.82
2023-04-05T10:51:03.923Z,8.89
2023-04-05T10:52:03.882Z,8.92
2023-04-05T10:53:03.825Z,8.99
2023-04-05T10:54:03.860Z,9.03
2023-04-05T10:55:03.798Z,9.08
2023-04-05T10:56:03.775Z,9.03
2023-04-05T10:57:03.793Z,9.05
2023-04-05T10:58:03.805Z,9.08
2023-04-05T10:59:03.819Z,9.11
2023-04-05T11:00:03.726Z,9.13
2023-04-05T11:01:03.742Z,9.16
2023-04-05T11:02:03.786Z,9.22
2023-04-05T11:03:03.848Z,9.27
2023-04-05T11:04:03.730Z,9.29
2023-04-05T11:05:03.662Z,9.26
2023-04-05T11:06:03.676Z,9.22
2023-04-05T11:07:03.644Z,9.21
2023-04-05T11:08:03.622Z,9.21
2023-04-05T11:09:03.624Z,9.21
2023-04-05T11:10:03.587Z,9.16
2023-04-05T11:11:03.597Z,9.21
2023-04-05T11:12:03.557Z,9.22
2023-04-05T11:13:03.622Z,9.27
2023-04-05T11:14:03.547Z,9.36
2023-04-05T11:15:03.525Z,9.40
2023-04-05T11:16:03.525Z,9.47
2023-04-05T11:17:03.570Z,9.52
2023-04-05T11:18:03.714Z,9.59
2023-04-05T11:19:03.489Z,9.66
2023-04-05T11:20:03.464Z,9.73
2023-04-05T11:21:03.457Z,9.77
2023-04-05T11:22:03.514Z,9.81
2023-04-05T11:23:03.418Z,9.84
2023-04-05T11:24:03.459Z,9.81
2023-04-05T11:25:03.515Z,9.80
2023-04-05T11:26:03.383Z,9.77
2023-04-05T11:27:03.362Z,9.73
2023-04-05T11:28:03.355Z,9.73
2023-04-05T11:29:03.341Z,9.76
2023-04-05T11:30:03.349Z,9.84
2023-04-05T11:31:03.339Z,9.92
2023-04-05T11:32:03.308Z,10.00
2023-04-05T11:33:03.374Z,10.05
2023-04-05T11:34:03.290Z,10.12
2023-04-05T11:35:03.285Z,10.15
2023-04-05T11:36:03.558Z,10.20
2023-04-05T11:37:03.244Z,10.13
2023-04-05T11:38:03.363Z,10.13
2023-04-05T11:39:03.248Z,10.09
2023-04-05T11:40:04.422Z,10.12
2023-04-05T11:41:04.146Z,10.13
2023-04-05T11:42:03.180Z,10.18
2023-04-05T11:43:03.181Z,10.18
2023-04-05T11:44:03.131Z,10.23
2023-04-05T11:45:03.150Z,10.27
2023-04-05T11:46:03.138Z,10.28
2023-04-05T11:47:03.114Z,10.24
2023-04-05T11:48:03.113Z,10.20
2023-04-05T11:49:03.071Z,10.13
2023-04-05T11:50:03.081Z,10.18
2023-04-05T11:51:03.043Z,10.25
2023-04-05T11:52:03.021Z,10.33
2023-04-05T11:53:03.025Z,10.38
2023-04-05T11:54:03.008Z,10.45
2023-04-05T11:55:03.661Z,10.51
2023-04-05T11:56:02.996Z,10.57
2023-04-05T11:57:02.959Z,10.59
2023-04-05T11:58:02.948Z,10.62
2023-04-05T11:59:02.970Z,10.67
2023-04-05T12:00:02.943Z,10.72
2023-04-05T12:01:02.914Z,10.76
2023-04-05T12:02:02.903Z,10.80
2023-04-05T12:03:02.956Z,10.84
2023-04-05T12:04:02.904Z,10.94
2023-04-05T12:05:02.920Z,10.98
2023-04-05T12:06:02.836Z,11.00
2023-04-05T12:07:02.847Z,11.02
2023-04-05T12:08:02.824Z,11.08
2023-04-05T12:09:02.803Z,11.16
2023-04-05T12:10:02.792Z,11.22
2023-04-05T12:11:02.772Z,11.26
2023-04-05T12:12:02.761Z,11.27
2023-04-05T12:13:02.796Z,11.30
2023-04-05T12:14:02.737Z,11.30
2023-04-05T12:15:02.748Z,11.31
2023-04-05T12:16:02.792Z,11.34
2023-04-05T12:17:02.749Z,11.33
2023-04-05T12:18:02.728Z,11.27
2023-04-05T12:19:02.687Z,11.22
2023-04-05T12:20:02.676Z,11.26
2023-04-05T12:21:04.898Z,11.34
2023-04-05T12:22:02.620Z,11.40
2023-04-05T12:23:02.621Z,11.44
2023-04-05T12:24:02.602Z,11.51
2023-04-05T12:25:02.613Z,11.56
2023-04-05T12:26:02.565Z,11.63
2023-04-05T12:27:02.559Z,11.73
2023-04-05T12:28:02.554Z,11.76
2023-04-05T12:29:02.549Z,11.78
2023-04-05T12:30:02.664Z,11.81
2023-04-05T12:31:02.546Z,11.83
2023-04-05T12:32:02.515Z,11.86
2023-04-05T12:33:02.537Z,11.91
2023-04-05T12:34:02.464Z,11.97
2023-04-05T12:35:02.468Z,12.00
2023-04-05T12:36:02.477Z,12.03
2023-04-05T12:37:02.456Z,12.08
2023-04-05T12:38:02.442Z,12.00
2023-04-05T12:39:02.414Z,11.91
2023-04-05T12:40:02.373Z,11.80
2023-04-05T12:41:02.493Z,11.81
2023-04-05T12:42:02.362Z,11.83
2023-04-05T12:43:02.359Z,11.86
2023-04-05T12:44:02.347Z,11.93
2023-04-05T12:45:02.381Z,12.00
2023-04-05T12:46:02.397Z,12.07
2023-04-05T12:47:02.324Z,12.12
2023-04-05T12:48:02.333Z,12.17
2023-04-05T12:49:02.311Z,12.20
2023-04-05T12:50:02.332Z,12.29
2023-04-05T12:51:02.319Z,12.37
2023-04-05T12:52:02.224Z,12.39
2023-04-05T12:53:02.586Z,12.37
2023-04-05T12:54:02.370Z,12.15
2023-04-05T12:55:02.554Z,12.10
2023-04-05T12:56:02.918Z,12.12
2023-04-05T12:57:02.168Z,12.18
2023-04-05T12:58:02.184Z,12.21
2023-04-05T12:59:02.172Z,12.29
2023-04-05T13:00:02.138Z,12.36
2023-04-05T13:01:02.146Z,12.43
2023-04-05T13:02:02.158Z,12.44
2023-04-05T13:03:02.173Z,12.47
2023-04-05T13:04:14.649Z,12.37
2023-04-05T13:05:03.070Z,12.35
2023-04-05T13:06:02.070Z,12.32
2023-04-05T13:07:02.034Z,12.28
2023-04-05T13:08:02.013Z,12.15
2023-04-05T13:09:02.033Z,12.26
2023-04-05T13:10:02.043Z,12.35
2023-04-05T13:11:02.583Z,12.36